sensor_id;sensor_type;location;lat;lon;timestamp;P1;durP1;ratioP1;P2;durP2;ratioP2
45762;SDS011;37512;52.408;13.356;2023-06-01T00:00:56;3.25;;;1.65;;
45762;SDS011;37512;52.408;13.356;2023-06-01T00:05:00;6.07;;;2.20;;
45762;SDS011;37512;52.408;13.356;2023-06-01T00:09:17;2.85;;;1.50;;
45762;SDS011;37512;52.408;13.356;2023-06-01T00:13:18;5.10;;;1.90;;
45762;SDS011;37512;52.408;13.356;2023-06-01T00:17:20;7.55;;;2.42;;
45762;SDS011;37512;52.408;13.356;2023-06-01T00:21:24;2.45;;;1.40;;
45762;SDS011;37512;52.408;13.356;2023-06-01T00:25:26;3.35;;;1.77;;
45762;SDS011;37512;52.408;13.356;2023-06-01T00:29:28;4.63;;;1.90;;
45762;SDS011;37512;52.408;13.356;2023-06-01T00:33:30;5.35;;;1.60;;
45762;SDS011;37512;52.408;13.356;2023-06-01T00:37:32;3.17;;;1.60;;
45762;SDS011;37512;52.408;13.356;2023-06-01T00:41:34;4.80;;;1.65;;
45762;SDS011;37512;52.408;13.356;2023-06-01T00:45:35;8.20;;;2.00;;
45762;SDS011;37512;52.408;13.356;2023-06-01T00:49:40;5.97;;;1.95;;
45762;SDS011;37512;52.408;13.356;2023-06-01T00:53:42;4.68;;;1.65;;
45762;SDS011;37512;52.408;13.356;2023-06-01T00:57:44;6.03;;;1.73;;
45762;SDS011;37512;52.408;13.356;2023-06-01T01:01:45;4.03;;;1.42;;
45762;SDS011;37512;52.408;13.356;2023-06-01T01:05:47;4.13;;;1.60;;
45762;SDS011;37512;52.408;13.356;2023-06-01T01:14:25;2.60;;;1.70;;
45762;SDS011;37512;52.408;13.356;2023-06-01T01:23:15;5.68;;;2.10;;
45762;SDS011;37512;52.408;13.356;2023-06-01T01:27:36;6.97;;;1.92;;
45762;SDS011;37512;52.408;13.356;2023-06-01T01:31:45;6.43;;;1.83;;
45762;SDS011;37512;52.408;13.356;2023-06-01T01:35:50;8.23;;;2.08;;
45762;SDS011;37512;52.408;13.356;2023-06-01T01:39:53;2.67;;;1.40;;
45762;SDS011;37512;52.408;13.356;2023-06-01T01:43:54;4.65;;;2.03;;
45762;SDS011;37512;52.408;13.356;2023-06-01T01:48:05;3.17;;;1.90;;
45762;SDS011;37512;52.408;13.356;2023-06-01T01:52:23;6.53;;;2.15;;
45762;SDS011;37512;52.408;13.356;2023-06-01T01:56:31;4.80;;;1.83;;
45762;SDS011;37512;52.408;13.356;2023-06-01T02:00:33;3.50;;;1.85;;
45762;SDS011;37512;52.408;13.356;2023-06-01T02:04:42;3.22;;;1.73;;
45762;SDS011;37512;52.408;13.356;2023-06-01T02:08:45;3.80;;;1.90;;
45762;SDS011;37512;52.408;13.356;2023-06-01T02:12:46;4.78;;;2.55;;
45762;SDS011;37512;52.408;13.356;2023-06-01T02:16:48;6.57;;;2.08;;
45762;SDS011;37512;52.408;13.356;2023-06-01T02:20:50;4.25;;;2.20;;
45762;SDS011;37512;52.408;13.356;2023-06-01T02:24:51;6.88;;;2.58;;
45762;SDS011;37512;52.408;13.356;2023-06-01T02:28:53;10.70;;;2.55;;
45762;SDS011;37512;52.408;13.356;2023-06-01T02:32:55;7.90;;;2.80;;
45762;SDS011;37512;52.408;13.356;2023-06-01T02:36:56;4.35;;;2.88;;
45762;SDS011;37512;52.408;13.356;2023-06-01T02:40:58;4.82;;;2.40;;
45762;SDS011;37512;52.408;13.356;2023-06-01T02:45:00;6.43;;;2.67;;
45762;SDS011;37512;52.408;13.356;2023-06-01T02:49:02;7.32;;;3.03;;
45762;SDS011;37512;52.408;13.356;2023-06-01T02:53:05;6.28;;;3.22;;
45762;SDS011;37512;52.408;13.356;2023-06-01T02:57:07;7.68;;;2.83;;
45762;SDS011;37512;52.408;13.356;2023-06-01T03:01:08;7.32;;;3.08;;
45762;SDS011;37512;52.408;13.356;2023-06-01T03:05:14;7.13;;;3.50;;
45762;SDS011;37512;52.408;13.356;2023-06-01T03:09:16;5.72;;;4.00;;
45762;SDS011;37512;52.408;13.356;2023-06-01T03:13:18;5.93;;;4.10;;
45762;SDS011;37512;52.408;13.356;2023-06-01T03:17:20;8.95;;;3.55;;
45762;SDS011;37512;52.408;13.356;2023-06-01T03:21:21;6.25;;;2.92;;
45762;SDS011;37512;52.408;13.356;2023-06-01T03:25:23;7.43;;;3.85;;
45762;SDS011;37512;52.408;13.356;2023-06-01T03:29:26;12.18;;;3.85;;
45762;SDS011;37512;52.408;13.356;2023-06-01T03:33:28;7.72;;;3.47;;
45762;SDS011;37512;52.408;13.356;2023-06-01T03:37:29;6.07;;;3.85;;
45762;SDS011;37512;52.408;13.356;2023-06-01T03:41:31;10.05;;;4.15;;
45762;SDS011;37512;52.408;13.356;2023-06-01T03:45:32;7.38;;;4.40;;
45762;SDS011;37512;52.408;13.356;2023-06-01T03:49:34;11.13;;;4.50;;
45762;SDS011;37512;52.408;13.356;2023-06-01T03:53:36;9.93;;;5.22;;
45762;SDS011;37512;52.408;13.356;2023-06-01T03:57:38;8.15;;;4.72;;
45762;SDS011;37512;52.408;13.356;2023-06-01T04:01:40;11.77;;;5.20;;
45762;SDS011;37512;52.408;13.356;2023-06-01T04:05:44;11.48;;;5.38;;
45762;SDS011;37512;52.408;13.356;2023-06-01T04:09:51;14.27;;;6.63;;
45762;SDS011;37512;52.408;13.356;2023-06-01T04:13:52;10.88;;;5.25;;
45762;SDS011;37512;52.408;13.356;2023-06-01T04:17:54;14.40;;;6.38;;
45762;SDS011;37512;52.408;13.356;2023-06-01T04:21:56;15.57;;;6.00;;
45762;SDS011;37512;52.408;13.356;2023-06-01T04:25:58;10.77;;;5.60;;
45762;SDS011;37512;52.408;13.356;2023-06-01T04:30:00;14.27;;;6.07;;
45762;SDS011;37512;52.408;13.356;2023-06-01T04:34:02;19.10;;;7.05;;
45762;SDS011;37512;52.408;13.356;2023-06-01T04:38:04;21.38;;;7.40;;
45762;SDS011;37512;52.408;13.356;2023-06-01T04:42:05;15.35;;;6.60;;
45762;SDS011;37512;52.408;13.356;2023-06-01T04:46:07;15.90;;;7.57;;
45762;SDS011;37512;52.408;13.356;2023-06-01T04:50:10;15.52;;;7.80;;
45762;SDS011;37512;52.408;13.356;2023-06-01T04:54:12;21.52;;;6.63;;
45762;SDS011;37512;52.408;13.356;2023-06-01T04:58:14;14.10;;;7.30;;
45762;SDS011;37512;52.408;13.356;2023-06-01T05:02:17;13.30;;;7.45;;
45762;SDS011;37512;52.408;13.356;2023-06-01T05:06:19;11.98;;;6.95;;
45762;SDS011;37512;52.408;13.356;2023-06-01T05:10:21;15.40;;;7.93;;
45762;SDS011;37512;52.408;13.356;2023-06-01T05:14:23;15.27;;;8.07;;
45762;SDS011;37512;52.408;13.356;2023-06-01T05:18:25;12.60;;;7.57;;
45762;SDS011;37512;52.408;13.356;2023-06-01T05:22:27;18.50;;;6.82;;
45762;SDS011;37512;52.408;13.356;2023-06-01T05:26:28;15.20;;;6.85;;
45762;SDS011;37512;52.408;13.356;2023-06-01T05:34:38;13.60;;;8.23;;
45762;SDS011;37512;52.408;13.356;2023-06-01T05:38:40;15.85;;;7.55;;
45762;SDS011;37512;52.408;13.356;2023-06-01T05:42:42;19.40;;;7.95;;
45762;SDS011;37512;52.408;13.356;2023-06-01T05:46:43;12.52;;;7.43;;
45762;SDS011;37512;52.408;13.356;2023-06-01T05:50:45;15.82;;;7.30;;
45762;SDS011;37512;52.408;13.356;2023-06-01T05:54:47;18.38;;;6.43;;
45762;SDS011;37512;52.408;13.356;2023-06-01T05:58:55;18.85;;;7.30;;
45762;SDS011;37512;52.408;13.356;2023-06-01T06:03:07;15.90;;;6.82;;
45762;SDS011;37512;52.408;13.356;2023-06-01T06:07:09;13.77;;;6.85;;
45762;SDS011;37512;52.408;13.356;2023-06-01T06:11:11;14.18;;;5.57;;
45762;SDS011;37512;52.408;13.356;2023-06-01T06:15:13;16.35;;;5.80;;
45762;SDS011;37512;52.408;13.356;2023-06-01T06:19:14;12.70;;;5.32;;
45762;SDS011;37512;52.408;13.356;2023-06-01T06:23:17;10.30;;;4.78;;
45762;SDS011;37512;52.408;13.356;2023-06-01T06:27:19;12.40;;;5.60;;
45762;SDS011;37512;52.408;13.356;2023-06-01T06:31:22;12.63;;;5.80;;
45762;SDS011;37512;52.408;13.356;2023-06-01T06:35:28;9.05;;;5.20;;
45762;SDS011;37512;52.408;13.356;2023-06-01T06:39:30;11.23;;;4.82;;
45762;SDS011;37512;52.408;13.356;2023-06-01T06:43:32;11.95;;;5.30;;
45762;SDS011;37512;52.408;13.356;2023-06-01T06:47:34;9.82;;;4.95;;
45762;SDS011;37512;52.408;13.356;2023-06-01T06:51:37;8.43;;;4.25;;
45762;SDS011;37512;52.408;13.356;2023-06-01T06:55:40;10.55;;;4.65;;
45762;SDS011;37512;52.408;13.356;2023-06-01T06:59:44;9.82;;;3.90;;
45762;SDS011;37512;52.408;13.356;2023-06-01T07:03:46;9.63;;;4.47;;
45762;SDS011;37512;52.408;13.356;2023-06-01T07:07:48;4.90;;;4.05;;
45762;SDS011;37512;52.408;13.356;2023-06-01T07:11:50;9.93;;;5.03;;
45762;SDS011;37512;52.408;13.356;2023-06-01T07:15:52;10.00;;;4.88;;
45762;SDS011;37512;52.408;13.356;2023-06-01T07:19:54;7.00;;;4.05;;
45762;SDS011;37512;52.408;13.356;2023-06-01T07:23:56;5.68;;;3.95;;
45762;SDS011;37512;52.408;13.356;2023-06-01T07:27:58;11.27;;;4.75;;
45762;SDS011;37512;52.408;13.356;2023-06-01T07:32:01;8.43;;;4.35;;
45762;SDS011;37512;52.408;13.356;2023-06-01T07:36:04;8.82;;;4.43;;
45762;SDS011;37512;52.408;13.356;2023-06-01T07:40:08;8.27;;;4.07;;
45762;SDS011;37512;52.408;13.356;2023-06-01T07:44:10;10.52;;;4.95;;
45762;SDS011;37512;52.408;13.356;2023-06-01T07:48:11;6.90;;;3.67;;
45762;SDS011;37512;52.408;13.356;2023-06-01T07:52:13;11.30;;;3.45;;
45762;SDS011;37512;52.408;13.356;2023-06-01T07:56:15;18.75;;;4.35;;
45762;SDS011;37512;52.408;13.356;2023-06-01T08:00:17;15.30;;;4.45;;
45762;SDS011;37512;52.408;13.356;2023-06-01T08:04:19;8.18;;;3.97;;
45762;SDS011;37512;52.408;13.356;2023-06-01T08:08:22;7.30;;;4.28;;
45762;SDS011;37512;52.408;13.356;2023-06-01T08:12:24;7.75;;;3.53;;
45762;SDS011;37512;52.408;13.356;2023-06-01T08:16:27;8.68;;;4.60;;
45762;SDS011;37512;52.408;13.356;2023-06-01T08:20:29;6.85;;;3.80;;
45762;SDS011;37512;52.408;13.356;2023-06-01T08:24:31;21.38;;;4.93;;
45762;SDS011;37512;52.408;13.356;2023-06-01T08:28:33;12.13;;;4.90;;
45762;SDS011;37512;52.408;13.356;2023-06-01T08:32:35;14.98;;;5.07;;
45762;SDS011;37512;52.408;13.356;2023-06-01T08:36:37;9.48;;;4.47;;
45762;SDS011;37512;52.408;13.356;2023-06-01T08:40:39;8.07;;;4.07;;
45762;SDS011;37512;52.408;13.356;2023-06-01T08:44:42;8.85;;;4.68;;
45762;SDS011;37512;52.408;13.356;2023-06-01T08:48:43;8.77;;;4.70;;
45762;SDS011;37512;52.408;13.356;2023-06-01T08:52:46;7.80;;;3.92;;
45762;SDS011;37512;52.408;13.356;2023-06-01T08:56:48;13.70;;;4.63;;
45762;SDS011;37512;52.408;13.356;2023-06-01T09:00:51;6.80;;;4.28;;
45762;SDS011;37512;52.408;13.356;2023-06-01T09:04:55;9.00;;;4.30;;
45762;SDS011;37512;52.408;13.356;2023-06-01T09:08:57;8.77;;;5.00;;
45762;SDS011;37512;52.408;13.356;2023-06-01T09:12:59;9.05;;;4.63;;
45762;SDS011;37512;52.408;13.356;2023-06-01T09:17:02;8.90;;;4.88;;
45762;SDS011;37512;52.408;13.356;2023-06-01T09:21:09;8.48;;;5.30;;
45762;SDS011;37512;52.408;13.356;2023-06-01T09:25:13;10.23;;;5.13;;
45762;SDS011;37512;52.408;13.356;2023-06-01T09:29:16;12.13;;;5.25;;
45762;SDS011;37512;52.408;13.356;2023-06-01T09:33:18;10.45;;;5.55;;
45762;SDS011;37512;52.408;13.356;2023-06-01T09:37:21;9.70;;;5.65;;
45762;SDS011;37512;52.408;13.356;2023-06-01T09:41:23;14.50;;;6.38;;
45762;SDS011;37512;52.408;13.356;2023-06-01T09:45:26;18.30;;;5.88;;
45762;SDS011;37512;52.408;13.356;2023-06-01T09:49:33;8.68;;;6.40;;
45762;SDS011;37512;52.408;13.356;2023-06-01T09:53:41;10.10;;;6.05;;
45762;SDS011;37512;52.408;13.356;2023-06-01T09:57:43;13.70;;;6.55;;
45762;SDS011;37512;52.408;13.356;2023-06-01T10:01:45;9.52;;;6.38;;
45762;SDS011;37512;52.408;13.356;2023-06-01T10:05:54;12.27;;;7.10;;
45762;SDS011;37512;52.408;13.356;2023-06-01T10:09:57;12.13;;;7.03;;
45762;SDS011;37512;52.408;13.356;2023-06-01T10:14:00;14.18;;;7.65;;
45762;SDS011;37512;52.408;13.356;2023-06-01T10:18:04;17.33;;;8.77;;
45762;SDS011;37512;52.408;13.356;2023-06-01T10:22:07;15.35;;;8.68;;
45762;SDS011;37512;52.408;13.356;2023-06-01T10:26:11;13.43;;;7.70;;
45762;SDS011;37512;52.408;13.356;2023-06-01T10:30:16;10.65;;;7.30;;
45762;SDS011;37512;52.408;13.356;2023-06-01T10:34:36;17.13;;;8.57;;
45762;SDS011;37512;52.408;13.356;2023-06-01T10:38:45;12.90;;;7.07;;
45762;SDS011;37512;52.408;13.356;2023-06-01T10:42:47;13.63;;;7.88;;
45762;SDS011;37512;52.408;13.356;2023-06-01T10:46:49;9.88;;;7.60;;
45762;SDS011;37512;52.408;13.356;2023-06-01T10:51:16;14.18;;;7.57;;
45762;SDS011;37512;52.408;13.356;2023-06-01T10:55:24;10.80;;;7.13;;
45762;SDS011;37512;52.408;13.356;2023-06-01T10:59:27;12.82;;;6.88;;
45762;SDS011;37512;52.408;13.356;2023-06-01T11:03:42;11.65;;;6.75;;
45762;SDS011;37512;52.408;13.356;2023-06-01T11:07:46;10.93;;;6.40;;
45762;SDS011;37512;52.408;13.356;2023-06-01T11:20:20;7.88;;;4.60;;
45762;SDS011;37512;52.408;13.356;2023-06-01T11:24:48;9.73;;;6.32;;
45762;SDS011;37512;52.408;13.356;2023-06-01T11:29:02;8.98;;;5.25;;
45762;SDS011;37512;52.408;13.356;2023-06-01T11:33:06;10.05;;;4.70;;
45762;SDS011;37512;52.408;13.356;2023-06-01T11:37:18;9.10;;;4.07;;
45762;SDS011;37512;52.408;13.356;2023-06-01T11:41:21;10.68;;;4.75;;
45762;SDS011;37512;52.408;13.356;2023-06-01T11:45:27;12.43;;;5.38;;
45762;SDS011;37512;52.408;13.356;2023-06-01T11:49:30;9.10;;;4.82;;
45762;SDS011;37512;52.408;13.356;2023-06-01T11:53:31;6.70;;;4.40;;
45762;SDS011;37512;52.408;13.356;2023-06-01T11:57:33;6.22;;;3.95;;
45762;SDS011;37512;52.408;13.356;2023-06-01T12:01:35;8.52;;;3.97;;
45762;SDS011;37512;52.408;13.356;2023-06-01T12:05:40;8.18;;;3.47;;
45762;SDS011;37512;52.408;13.356;2023-06-01T12:09:46;8.93;;;3.45;;
45762;SDS011;37512;52.408;13.356;2023-06-01T12:13:49;5.88;;;3.50;;
45762;SDS011;37512;52.408;13.356;2023-06-01T12:17:52;8.93;;;3.65;;
45762;SDS011;37512;52.408;13.356;2023-06-01T12:26:02;6.30;;;3.25;;
45762;SDS011;37512;52.408;13.356;2023-06-01T12:30:19;8.98;;;3.80;;
45762;SDS011;37512;52.408;13.356;2023-06-01T12:34:21;5.07;;;2.85;;
45762;SDS011;37512;52.408;13.356;2023-06-01T12:38:23;8.13;;;4.30;;
45762;SDS011;37512;52.408;13.356;2023-06-01T12:42:34;5.78;;;3.08;;
45762;SDS011;37512;52.408;13.356;2023-06-01T12:46:39;7.68;;;3.63;;
45762;SDS011;37512;52.408;13.356;2023-06-01T12:50:44;5.45;;;2.78;;
45762;SDS011;37512;52.408;13.356;2023-06-01T12:54:46;6.60;;;2.63;;
45762;SDS011;37512;52.408;13.356;2023-06-01T12:58:51;5.22;;;2.70;;
45762;SDS011;37512;52.408;13.356;2023-06-01T13:02:53;6.05;;;3.42;;
45762;SDS011;37512;52.408;13.356;2023-06-01T13:06:56;9.55;;;2.85;;
45762;SDS011;37512;52.408;13.356;2023-06-01T13:15:31;9.88;;;3.50;;
45762;SDS011;37512;52.408;13.356;2023-06-01T13:19:33;15.50;;;3.70;;
45762;SDS011;37512;52.408;13.356;2023-06-01T13:23:35;6.93;;;3.50;;
45762;SDS011;37512;52.408;13.356;2023-06-01T13:27:37;7.85;;;3.22;;
45762;SDS011;37512;52.408;13.356;2023-06-01T13:31:38;7.63;;;4.40;;
45762;SDS011;37512;52.408;13.356;2023-06-01T13:35:40;4.60;;;2.70;;
45762;SDS011;37512;52.408;13.356;2023-06-01T13:39:42;7.65;;;3.22;;
45762;SDS011;37512;52.408;13.356;2023-06-01T13:43:44;6.32;;;3.40;;
45762;SDS011;37512;52.408;13.356;2023-06-01T13:47:47;7.55;;;3.05;;
45762;SDS011;37512;52.408;13.356;2023-06-01T13:51:50;7.28;;;3.50;;
45762;SDS011;37512;52.408;13.356;2023-06-01T13:55:53;12.15;;;3.85;;
45762;SDS011;37512;52.408;13.356;2023-06-01T13:59:55;5.43;;;3.17;;
45762;SDS011;37512;52.408;13.356;2023-06-01T14:03:57;6.95;;;2.80;;
45762;SDS011;37512;52.408;13.356;2023-06-01T14:07:59;5.65;;;2.90;;
45762;SDS011;37512;52.408;13.356;2023-06-01T14:12:01;9.05;;;3.22;;
45762;SDS011;37512;52.408;13.356;2023-06-01T14:16:02;6.78;;;2.70;;
45762;SDS011;37512;52.408;13.356;2023-06-01T14:20:05;11.35;;;3.33;;
45762;SDS011;37512;52.408;13.356;2023-06-01T14:24:07;6.80;;;2.90;;
45762;SDS011;37512;52.408;13.356;2023-06-01T14:28:09;10.60;;;2.65;;
45762;SDS011;37512;52.408;13.356;2023-06-01T14:32:10;6.10;;;3.00;;
45762;SDS011;37512;52.408;13.356;2023-06-01T14:36:12;5.63;;;2.80;;
45762;SDS011;37512;52.408;13.356;2023-06-01T14:40:14;9.45;;;3.20;;
45762;SDS011;37512;52.408;13.356;2023-06-01T14:44:16;9.68;;;2.63;;
45762;SDS011;37512;52.408;13.356;2023-06-01T14:48:18;7.72;;;2.63;;
45762;SDS011;37512;52.408;13.356;2023-06-01T14:52:20;10.73;;;3.05;;
45762;SDS011;37512;52.408;13.356;2023-06-01T14:56:22;9.70;;;3.95;;
45762;SDS011;37512;52.408;13.356;2023-06-01T15:00:24;10.05;;;3.70;;
45762;SDS011;37512;52.408;13.356;2023-06-01T15:04:25;7.43;;;2.78;;
45762;SDS011;37512;52.408;13.356;2023-06-01T15:08:27;8.10;;;3.72;;
45762;SDS011;37512;52.408;13.356;2023-06-01T15:12:30;6.03;;;3.70;;
45762;SDS011;37512;52.408;13.356;2023-06-01T15:16:32;12.93;;;3.47;;
45762;SDS011;37512;52.408;13.356;2023-06-01T15:20:38;7.97;;;3.25;;
45762;SDS011;37512;52.408;13.356;2023-06-01T15:24:40;6.10;;;3.08;;
45762;SDS011;37512;52.408;13.356;2023-06-01T15:28:42;8.52;;;3.47;;
45762;SDS011;37512;52.408;13.356;2023-06-01T15:32:43;6.50;;;3.35;;
45762;SDS011;37512;52.408;13.356;2023-06-01T15:37:00;6.60;;;2.92;;
45762;SDS011;37512;52.408;13.356;2023-06-01T15:41:02;9.50;;;3.33;;
45762;SDS011;37512;52.408;13.356;2023-06-01T15:45:07;5.65;;;2.70;;
45762;SDS011;37512;52.408;13.356;2023-06-01T15:49:09;6.07;;;2.63;;
45762;SDS011;37512;52.408;13.356;2023-06-01T15:53:11;6.60;;;2.95;;
45762;SDS011;37512;52.408;13.356;2023-06-01T15:57:13;5.45;;;2.78;;
45762;SDS011;37512;52.408;13.356;2023-06-01T16:01:15;5.82;;;2.78;;
45762;SDS011;37512;52.408;13.356;2023-06-01T16:05:30;6.35;;;3.17;;
45762;SDS011;37512;52.408;13.356;2023-06-01T16:09:35;4.57;;;2.47;;
45762;SDS011;37512;52.408;13.356;2023-06-01T16:13:37;8.68;;;2.97;;
45762;SDS011;37512;52.408;13.356;2023-06-01T16:17:39;5.60;;;3.15;;
45762;SDS011;37512;52.408;13.356;2023-06-01T16:21:41;6.75;;;2.53;;
45762;SDS011;37512;52.408;13.356;2023-06-01T16:25:43;6.25;;;2.70;;
45762;SDS011;37512;52.408;13.356;2023-06-01T16:29:45;8.15;;;3.33;;
45762;SDS011;37512;52.408;13.356;2023-06-01T16:33:47;5.63;;;3.33;;
45762;SDS011;37512;52.408;13.356;2023-06-01T16:37:49;9.98;;;2.88;;
45762;SDS011;37512;52.408;13.356;2023-06-01T16:41:51;6.20;;;3.08;;
45762;SDS011;37512;52.408;13.356;2023-06-01T16:45:53;5.45;;;2.90;;
45762;SDS011;37512;52.408;13.356;2023-06-01T16:49:54;5.90;;;2.90;;
45762;SDS011;37512;52.408;13.356;2023-06-01T16:53:56;8.63;;;2.97;;
45762;SDS011;37512;52.408;13.356;2023-06-01T16:57:58;4.45;;;2.97;;
45762;SDS011;37512;52.408;13.356;2023-06-01T17:02:01;5.85;;;3.03;;
45762;SDS011;37512;52.408;13.356;2023-06-01T17:06:03;10.35;;;2.40;;
45762;SDS011;37512;52.408;13.356;2023-06-01T17:10:05;6.78;;;2.75;;
45762;SDS011;37512;52.408;13.356;2023-06-01T17:14:07;6.00;;;2.60;;
45762;SDS011;37512;52.408;13.356;2023-06-01T17:18:09;6.53;;;2.78;;
45762;SDS011;37512;52.408;13.356;2023-06-01T17:22:12;7.95;;;3.33;;
45762;SDS011;37512;52.408;13.356;2023-06-01T17:26:14;11.77;;;3.13;;
45762;SDS011;37512;52.408;13.356;2023-06-01T17:30:16;17.45;;;8.10;;
45762;SDS011;37512;52.408;13.356;2023-06-01T17:34:21;7.30;;;3.85;;
45762;SDS011;37512;52.408;13.356;2023-06-01T17:38:24;7.50;;;3.13;;
45762;SDS011;37512;52.408;13.356;2023-06-01T17:42:27;7.28;;;3.63;;
45762;SDS011;37512;52.408;13.356;2023-06-01T17:46:30;7.82;;;3.50;;
